createdAt,value
2023-07-24T00:00:07.986Z,5.70
2023-07-24T00:02:36.246Z,5.90
2023-07-24T00:05:04.884Z,5.57
2023-07-24T00:07:33.270Z,5.97
2023-07-24T00:10:01.609Z,5.28
2023-07-24T00:12:29.898Z,5.00
2023-07-24T00:14:59.577Z,5.85
2023-07-24T00:17:27.967Z,6.00
2023-07-24T00:19:56.280Z,5.78
2023-07-24T00:22:24.655Z,5.55
2023-07-24T00:24:53.021Z,5.18
2023-07-24T00:27:21.401Z,5.57
2023-07-24T00:29:49.736Z,5.68
2023-07-24T00:32:19.536Z,5.40
2023-07-24T00:34:47.897Z,5.38
2023-07-24T00:37:16.186Z,5.40
2023-07-24T00:39:44.676Z,4.97
2023-07-24T00:42:13.029Z,5.18
2023-07-24T00:44:41.345Z,5.38
2023-07-24T00:47:09.747Z,5.70
2023-07-24T00:49:39.555Z,5.50
2023-07-24T00:52:08.870Z,5.40
2023-07-24T00:54:37.396Z,5.38
2023-07-24T00:57:06.789Z,4.90
2023-07-24T00:59:35.592Z,5.30
2023-07-24T01:02:04.196Z,5.13
2023-07-24T01:04:32.749Z,5.18
2023-07-24T01:07:02.698Z,5.65
2023-07-24T01:09:30.970Z,4.80
2023-07-24T01:12:05.016Z,5.50
2023-07-24T01:14:44.150Z,5.35
2023-07-24T01:17:17.509Z,5.07
2023-07-24T01:19:49.896Z,5.25
2023-07-24T01:22:27.164Z,5.30
2023-07-24T01:25:06.477Z,5.05
2023-07-24T01:27:36.551Z,5.15
2023-07-24T01:30:05.245Z,5.03
2023-07-24T01:32:33.628Z,5.63
2023-07-24T01:35:02.092Z,5.60
2023-07-24T01:37:31.609Z,5.10
2023-07-24T01:40:00.491Z,5.15
2023-07-24T01:42:29.921Z,4.93
2023-07-24T01:44:59.569Z,5.43
2023-07-24T01:47:27.986Z,5.05
2023-07-24T01:49:56.340Z,5.00
2023-07-24T01:52:24.753Z,5.30
2023-07-24T01:54:53.028Z,5.05
2023-07-24T01:57:21.410Z,5.20
2023-07-24T01:59:50.278Z,5.10
2023-07-24T02:02:20.402Z,5.30
2023-07-24T02:04:48.811Z,5.13
2023-07-24T02:07:17.262Z,5.38
2023-07-24T02:09:45.644Z,4.78
2023-07-24T02:12:14.009Z,5.00
2023-07-24T02:14:42.238Z,5.20
2023-07-24T02:17:10.507Z,4.57
2023-07-24T02:19:40.164Z,5.20
2023-07-24T02:22:08.502Z,4.72
2023-07-24T02:24:37.473Z,5.35
2023-07-24T02:27:08.000Z,4.70
2023-07-24T02:29:37.055Z,4.88
2023-07-24T02:32:05.908Z,5.47
2023-07-24T02:34:34.346Z,5.43
2023-07-24T02:37:04.167Z,4.40
2023-07-24T02:39:32.514Z,4.43
2023-07-24T02:42:02.816Z,4.78
2023-07-24T02:44:31.056Z,5.28
2023-07-24T02:46:59.359Z,4.47
2023-07-24T02:49:27.723Z,4.70
2023-07-24T02:51:56.046Z,4.60
2023-07-24T02:54:25.700Z,5.30
2023-07-24T02:56:54.152Z,4.80
2023-07-24T02:59:22.428Z,4.35
2023-07-24T03:01:50.643Z,4.18
2023-07-24T03:04:19.226Z,4.03
2023-07-24T03:06:47.589Z,3.90
2023-07-24T03:09:16.278Z,3.45
2023-07-24T03:11:45.860Z,3.30
2023-07-24T03:14:14.226Z,3.42
2023-07-24T03:16:42.480Z,3.42
2023-07-24T03:19:10.760Z,3.25
2023-07-24T03:21:39.287Z,3.05
2023-07-24T03:24:07.870Z,3.17
2023-07-24T03:26:36.332Z,3.00
2023-07-24T03:29:07.409Z,3.13
2023-07-24T03:31:35.741Z,2.88
2023-07-24T03:34:04.125Z,2.60
2023-07-24T03:36:32.536Z,3.15
2023-07-24T03:39:00.944Z,3.13
2023-07-24T03:41:29.615Z,3.20
2023-07-24T03:43:58.106Z,3.38
2023-07-24T03:46:28.336Z,3.03
2023-07-24T03:48:57.177Z,3.30
2023-07-24T03:51:25.712Z,3.38
2023-07-24T03:53:55.167Z,5.22
2023-07-24T03:56:23.569Z,3.33
2023-07-24T03:58:52.196Z,3.25
2023-07-24T04:01:20.567Z,2.90
2023-07-24T04:03:50.315Z,3.10
2023-07-24T04:06:18.799Z,2.92
2023-07-24T04:08:47.133Z,3.95
2023-07-24T04:11:17.283Z,3.30
2023-07-24T04:13:45.618Z,3.70
2023-07-24T04:16:14.001Z,3.50
2023-07-24T04:18:42.324Z,3.00
2023-07-24T04:21:12.042Z,3.38
2023-07-24T04:23:43.941Z,3.08
2023-07-24T04:26:14.041Z,3.00
2023-07-24T04:28:42.750Z,2.67
2023-07-24T04:31:11.233Z,2.75
2023-07-24T04:33:39.575Z,3.28
2023-07-24T04:36:07.922Z,2.50
2023-07-24T04:38:41.073Z,2.45
2023-07-24T04:41:09.670Z,2.88
2023-07-24T04:43:38.010Z,3.10
2023-07-24T04:46:06.354Z,3.05
2023-07-24T04:48:34.616Z,2.67
2023-07-24T04:51:02.924Z,2.72
2023-07-24T04:53:31.589Z,2.80
2023-07-24T04:56:01.440Z,2.65
2023-07-24T04:58:29.704Z,3.00
2023-07-24T05:00:58.121Z,2.80
2023-07-24T05:03:26.418Z,2.58
2023-07-24T05:05:57.108Z,2.72
2023-07-24T05:08:25.805Z,2.97
2023-07-24T05:10:57.456Z,2.60
2023-07-24T05:13:27.228Z,2.75
2023-07-24T05:15:55.561Z,2.55
2023-07-24T05:18:23.981Z,2.58
2023-07-24T05:20:53.423Z,3.25
2023-07-24T05:23:21.712Z,3.03
2023-07-24T05:25:50.012Z,2.83
2023-07-24T05:28:18.264Z,2.75
2023-07-24T05:30:47.902Z,2.83
2023-07-24T05:33:16.246Z,2.72
2023-07-24T05:35:44.602Z,2.58
2023-07-24T05:38:13.151Z,3.05
2023-07-24T05:40:41.529Z,2.65
2023-07-24T05:43:09.853Z,2.90
2023-07-24T05:45:38.203Z,2.80
2023-07-24T05:48:08.140Z,2.40
2023-07-24T05:50:36.456Z,2.75
2023-07-24T05:53:04.841Z,2.60
2023-07-24T05:55:33.137Z,2.65
2023-07-24T05:58:01.522Z,2.75
2023-07-24T06:00:30.019Z,3.22
2023-07-24T06:02:58.455Z,2.33
2023-07-24T06:05:28.179Z,2.63
2023-07-24T06:07:57.234Z,2.97
2023-07-24T06:10:25.581Z,2.92
2023-07-24T06:12:53.863Z,2.70
2023-07-24T06:15:22.154Z,2.40
2023-07-24T06:17:52.610Z,2.90
2023-07-24T06:20:22.956Z,2.85
2023-07-24T06:22:52.662Z,2.78
2023-07-24T06:25:21.053Z,2.95
2023-07-24T06:27:49.377Z,2.95
2023-07-24T06:30:17.749Z,2.70
2023-07-24T06:32:46.156Z,2.75
2023-07-24T06:35:14.585Z,2.85
2023-07-24T06:37:42.957Z,2.90
2023-07-24T06:40:13.315Z,2.83
2023-07-24T06:42:41.593Z,2.53
2023-07-24T06:45:11.052Z,3.00
2023-07-24T06:47:39.486Z,2.78
2023-07-24T06:50:09.384Z,2.67
2023-07-24T06:52:37.835Z,2.65
2023-07-24T06:55:07.030Z,3.13
2023-07-24T06:57:36.789Z,2.85
2023-07-24T07:00:05.775Z,2.65
2023-07-24T07:02:34.181Z,3.10
2023-07-24T07:05:06.133Z,3.13
2023-07-24T07:07:34.828Z,2.47
2023-07-24T07:10:03.451Z,2.95
2023-07-24T07:12:31.698Z,2.85
2023-07-24T07:15:01.463Z,2.95
2023-07-24T07:17:29.893Z,2.97
2023-07-24T07:19:58.783Z,2.85
2023-07-24T07:22:26.992Z,2.72
2023-07-24T07:24:55.339Z,2.90
2023-07-24T07:27:23.856Z,3.10
2023-07-24T07:29:52.113Z,3.00
2023-07-24T07:32:21.706Z,3.00
2023-07-24T07:34:49.981Z,2.80
2023-07-24T07:37:18.379Z,3.17
2023-07-24T07:39:46.841Z,2.92
2023-07-24T07:42:18.345Z,2.92
2023-07-24T07:44:47.791Z,2.97
2023-07-24T07:47:16.161Z,3.13
2023-07-24T07:49:45.885Z,2.95
2023-07-24T07:52:15.902Z,3.08
2023-07-24T07:54:47.704Z,2.95
2023-07-24T07:57:16.475Z,3.00
2023-07-24T07:59:44.740Z,3.20
2023-07-24T08:02:13.124Z,3.13
2023-07-24T08:04:41.330Z,3.13
2023-07-24T08:07:11.034Z,2.72
2023-07-24T08:09:40.092Z,3.08
2023-07-24T08:12:09.448Z,2.88
2023-07-24T08:14:37.811Z,2.88
2023-07-24T08:17:06.784Z,2.58
2023-07-24T08:19:35.249Z,3.03
2023-07-24T08:22:03.733Z,2.95
2023-07-24T08:24:36.354Z,2.97
2023-07-24T08:27:05.430Z,3.03
2023-07-24T08:29:34.516Z,3.03
2023-07-24T08:32:03.081Z,2.45
2023-07-24T08:34:31.589Z,2.72
2023-07-24T08:37:00.107Z,3.15
2023-07-24T08:39:28.480Z,2.88
2023-07-24T08:41:59.185Z,2.97
2023-07-24T08:44:32.286Z,2.90
2023-07-24T08:47:01.922Z,3.17
2023-07-24T08:49:32.345Z,2.80
2023-07-24T08:52:02.154Z,2.90
2023-07-24T08:54:32.585Z,2.78
2023-07-24T08:57:03.150Z,2.67
2023-07-24T08:59:31.948Z,3.47
2023-07-24T09:02:00.359Z,2.83
2023-07-24T09:04:28.782Z,2.78
2023-07-24T09:06:58.926Z,2.90
2023-07-24T09:09:32.532Z,3.00
2023-07-24T09:12:02.243Z,3.20
2023-07-24T09:14:32.876Z,3.28
2023-07-24T09:17:05.869Z,3.20
2023-07-24T09:19:34.371Z,2.90
2023-07-24T09:22:14.153Z,2.95
2023-07-24T09:24:52.526Z,2.90
2023-07-24T09:27:22.913Z,3.45
2023-07-24T09:29:51.314Z,3.50
2023-07-24T09:32:23.905Z,3.20
2023-07-24T09:34:55.357Z,3.35
2023-07-24T09:37:28.335Z,3.63
2023-07-24T09:39:57.052Z,3.30
2023-07-24T09:42:34.531Z,3.40
2023-07-24T09:45:09.136Z,3.33
2023-07-24T09:47:55.179Z,3.70
2023-07-24T09:50:25.304Z,3.53
2023-07-24T09:52:54.446Z,4.20
2023-07-24T09:55:30.424Z,4.00
2023-07-24T09:58:02.794Z,3.75
2023-07-24T10:00:33.369Z,3.65
2023-07-24T10:03:02.285Z,3.35
2023-07-24T10:05:31.773Z,3.55
2023-07-24T10:08:00.916Z,3.47
2023-07-24T10:10:31.417Z,3.75
2023-07-24T10:13:01.471Z,3.20
2023-07-24T10:15:30.873Z,2.95
2023-07-24T10:18:05.485Z,3.40
2023-07-24T10:20:37.617Z,3.25
2023-07-24T10:23:08.504Z,3.20
2023-07-24T10:25:38.892Z,3.22
2023-07-24T10:28:12.106Z,3.53
2023-07-24T10:30:40.872Z,3.13
2023-07-24T10:33:12.038Z,3.33
2023-07-24T10:35:46.877Z,3.53
2023-07-24T10:38:17.346Z,3.50
2023-07-24T10:40:47.262Z,3.20
2023-07-24T10:43:22.743Z,3.00
2023-07-24T10:45:52.628Z,2.80
2023-07-24T10:48:22.385Z,3.35
2023-07-24T10:50:54.706Z,3.85
2023-07-24T10:53:24.510Z,2.58
2023-07-24T10:55:53.802Z,3.20
2023-07-24T10:58:27.477Z,3.22
2023-07-24T11:00:57.138Z,2.95
2023-07-24T11:03:27.177Z,3.50
2023-07-24T11:05:56.576Z,4.18
2023-07-24T11:08:24.840Z,3.20
2023-07-24T11:10:54.761Z,3.13
2023-07-24T11:13:25.869Z,2.72
2023-07-24T11:15:55.657Z,2.97
2023-07-24T11:18:34.181Z,3.22
2023-07-24T11:21:15.025Z,3.10
2023-07-24T11:23:48.096Z,3.25
2023-07-24T11:26:16.787Z,3.70
2023-07-24T11:28:46.753Z,4.07
2023-07-24T11:31:16.393Z,3.70
2023-07-24T11:33:46.450Z,3.35
2023-07-24T11:36:15.287Z,3.35
2023-07-24T11:38:43.595Z,3.58
2023-07-24T11:41:12.161Z,3.42
2023-07-24T11:43:49.918Z,3.55
2023-07-24T11:46:26.468Z,3.45
2023-07-24T11:48:57.884Z,3.30
2023-07-24T11:51:30.381Z,3.80
2023-07-24T11:54:09.525Z,3.63
2023-07-24T11:56:38.066Z,3.50
2023-07-24T11:59:15.297Z,3.85
2023-07-24T12:01:43.832Z,3.67
2023-07-24T12:04:12.584Z,3.92
2023-07-24T12:06:41.223Z,3.67
2023-07-24T12:09:09.842Z,3.80
2023-07-24T12:11:45.488Z,4.05
2023-07-24T12:14:16.436Z,3.33
2023-07-24T12:16:45.009Z,3.47
2023-07-24T12:19:13.570Z,3.20
2023-07-24T12:21:41.921Z,3.58
2023-07-24T12:24:10.231Z,3.13
2023-07-24T12:26:38.496Z,3.50
2023-07-24T12:29:06.773Z,3.22
2023-07-24T12:31:37.095Z,3.53
2023-07-24T12:34:05.666Z,3.53
2023-07-24T12:36:33.958Z,3.72
2023-07-24T12:39:02.297Z,3.40
2023-07-24T12:41:31.026Z,3.88
2023-07-24T12:44:01.148Z,3.63
2023-07-24T12:46:29.730Z,3.40
2023-07-24T12:48:59.490Z,3.70
2023-07-24T12:51:27.908Z,3.67
2023-07-24T12:54:03.199Z,3.35
2023-07-24T12:56:35.798Z,3.47
2023-07-24T12:59:04.634Z,3.50
2023-07-24T13:01:33.162Z,3.53
2023-07-24T13:04:03.031Z,3.25
2023-07-24T13:06:31.715Z,3.03
2023-07-24T13:09:00.424Z,3.28
2023-07-24T13:11:29.672Z,3.40
2023-07-24T13:13:58.713Z,3.60
2023-07-24T13:16:27.150Z,3.25
2023-07-24T13:18:55.526Z,3.35
2023-07-24T13:21:25.440Z,3.38
2023-07-24T13:23:53.763Z,3.58
2023-07-24T13:26:22.017Z,3.33
2023-07-24T13:28:50.401Z,3.50
2023-07-24T13:31:19.842Z,3.70
2023-07-24T13:33:48.853Z,3.78
2023-07-24T13:36:17.276Z,3.53
2023-07-24T13:38:47.004Z,3.50
2023-07-24T13:41:15.310Z,3.28
2023-07-24T13:43:43.612Z,4.15
2023-07-24T13:46:12.026Z,3.30
2023-07-24T13:48:40.572Z,3.55
2023-07-24T13:51:08.951Z,3.67
2023-07-24T13:53:37.287Z,3.60
2023-07-24T13:56:07.717Z,4.30
2023-07-24T13:58:35.946Z,4.00
2023-07-24T14:01:04.314Z,3.65
2023-07-24T14:03:32.832Z,3.75
2023-07-24T14:06:01.328Z,3.85
2023-07-24T14:08:29.647Z,3.80
2023-07-24T14:10:58.061Z,3.60
2023-07-24T14:13:27.847Z,3.58
2023-07-24T14:15:56.279Z,3.50
2023-07-24T14:18:24.806Z,3.95
2023-07-24T14:20:55.720Z,4.00
2023-07-24T14:23:24.219Z,3.78
2023-07-24T14:25:52.603Z,4.43
2023-07-24T14:28:23.887Z,3.63
2023-07-24T14:30:53.533Z,3.63
2023-07-24T14:33:23.593Z,3.90
2023-07-24T14:35:52.032Z,3.90
2023-07-24T14:38:20.511Z,3.70
2023-07-24T14:40:48.891Z,3.75
2023-07-24T14:43:17.334Z,3.50
2023-07-24T14:45:45.818Z,3.47
2023-07-24T14:48:17.889Z,3.63
2023-07-24T14:50:46.168Z,3.78
2023-07-24T14:53:14.500Z,3.40
2023-07-24T14:55:42.899Z,3.25
2023-07-24T14:58:11.326Z,2.95
2023-07-24T15:00:39.606Z,3.55
2023-07-24T15:03:08.031Z,3.05
2023-07-24T15:05:37.857Z,3.42
2023-07-24T15:08:06.771Z,3.25
2023-07-24T15:10:35.165Z,3.65
2023-07-24T15:13:03.382Z,3.60
2023-07-24T15:15:31.746Z,3.20
2023-07-24T15:18:01.082Z,3.40
2023-07-24T15:20:29.608Z,3.58
2023-07-24T15:23:00.496Z,3.70
2023-07-24T15:25:28.859Z,3.72
2023-07-24T15:27:57.121Z,3.88
2023-07-24T15:30:25.628Z,3.78
2023-07-24T15:32:54.050Z,3.75
2023-07-24T15:35:22.730Z,3.58
2023-07-24T15:37:51.264Z,4.70
2023-07-24T15:40:21.068Z,4.18
2023-07-24T15:42:49.488Z,3.97
2023-07-24T15:45:17.901Z,3.97
2023-07-24T15:47:46.309Z,3.80
2023-07-24T15:50:14.920Z,4.28
2023-07-24T15:52:44.584Z,3.95
2023-07-24T15:55:13.121Z,4.03
2023-07-24T15:57:43.006Z,3.60
2023-07-24T16:00:12.638Z,4.43
2023-07-24T16:02:41.977Z,3.63
2023-07-24T16:05:19.413Z,4.25
2023-07-24T16:07:47.720Z,4.70
2023-07-24T16:10:17.843Z,4.35
2023-07-24T16:12:47.623Z,4.30
2023-07-24T16:15:16.656Z,4.30
2023-07-24T16:20:16.288Z,4.07
2023-07-24T16:22:44.593Z,4.25
2023-07-24T16:25:12.874Z,4.28
2023-07-24T16:27:41.346Z,4.03
2023-07-24T16:30:12.355Z,4.43
2023-07-24T16:32:49.378Z,4.95
2023-07-24T16:35:18.697Z,4.68
2023-07-24T16:37:48.905Z,4.50
2023-07-24T16:40:18.725Z,4.18
2023-07-24T16:42:47.087Z,4.35
2023-07-24T16:47:48.090Z,4.20
2023-07-24T16:50:17.001Z,4.05
2023-07-24T16:52:45.490Z,3.97
2023-07-24T16:55:13.845Z,4.13
2023-07-24T16:57:42.201Z,4.25
2023-07-24T17:00:11.735Z,4.47
2023-07-24T17:02:41.486Z,4.07
2023-07-24T17:05:10.443Z,4.80
2023-07-24T17:07:38.761Z,4.75
2023-07-24T17:10:08.855Z,4.28
2023-07-24T17:12:37.250Z,4.53
2023-07-24T17:15:06.163Z,4.05
2023-07-24T17:17:34.924Z,4.32
2023-07-24T17:20:05.625Z,4.30
2023-07-24T17:22:34.027Z,4.10
2023-07-24T17:25:02.421Z,4.10
2023-07-24T17:27:32.009Z,4.63
2023-07-24T17:30:00.317Z,4.32
2023-07-24T17:32:28.678Z,4.50
2023-07-24T17:34:56.953Z,4.78
2023-07-24T17:37:37.337Z,4.70
2023-07-24T17:40:07.706Z,4.97
2023-07-24T17:42:36.074Z,4.22
2023-07-24T17:45:04.745Z,4.28
2023-07-24T17:47:34.033Z,4.22
2023-07-24T17:50:07.835Z,4.40
2023-07-24T17:52:38.631Z,4.63
2023-07-24T17:55:07.477Z,4.68
2023-07-24T17:57:35.810Z,3.92
2023-07-24T18:00:04.616Z,4.80
2023-07-24T18:02:33.600Z,4.32
2023-07-24T18:05:02.038Z,4.13
2023-07-24T18:07:30.431Z,4.25
2023-07-24T18:10:00.289Z,4.88
2023-07-24T18:12:29.151Z,4.93
2023-07-24T18:14:57.522Z,4.40
2023-07-24T18:17:25.885Z,4.43
2023-07-24T18:19:54.403Z,4.20
2023-07-24T18:22:22.727Z,4.57
2023-07-24T18:24:51.030Z,4.38
2023-07-24T18:27:20.816Z,4.65
2023-07-24T18:29:49.224Z,4.88
2023-07-24T18:32:17.552Z,4.97
2023-07-24T18:34:45.902Z,4.78
2023-07-24T18:37:14.421Z,4.50
2023-07-24T18:39:42.840Z,4.75
2023-07-24T18:42:11.485Z,4.88
2023-07-24T18:44:41.290Z,4.28
2023-07-24T18:47:09.744Z,4.63
2023-07-24T18:49:38.358Z,4.85
2023-07-24T18:52:07.755Z,5.35
2023-07-24T18:54:36.071Z,5.40
2023-07-24T18:57:04.670Z,4.72
2023-07-24T18:59:36.172Z,5.68
2023-07-24T19:02:06.606Z,5.55
2023-07-24T19:04:35.281Z,5.10
2023-07-24T19:07:03.811Z,6.35
2023-07-24T19:09:32.248Z,5.20
2023-07-24T19:12:00.700Z,5.63
2023-07-24T19:14:29.075Z,5.75
2023-07-24T19:16:57.527Z,6.03
2023-07-24T19:19:27.507Z,6.25
2023-07-24T19:21:55.915Z,6.40
2023-07-24T19:24:26.417Z,6.30
2023-07-24T19:26:54.882Z,6.10
2023-07-24T19:29:23.291Z,6.00
2023-07-24T19:31:52.222Z,6.22
2023-07-24T19:34:20.681Z,5.90
2023-07-24T19:36:51.125Z,6.65
2023-07-24T19:39:19.558Z,6.57
2023-07-24T19:41:47.922Z,6.25
2023-07-24T19:44:16.268Z,6.75
2023-07-24T19:46:44.648Z,5.70
2023-07-24T19:49:13.012Z,5.97
2023-07-24T19:51:41.413Z,5.95
2023-07-24T19:54:11.076Z,5.65
2023-07-24T19:56:39.503Z,5.80
2023-07-24T19:59:07.826Z,5.28
2023-07-24T20:01:36.260Z,6.13
2023-07-24T20:04:04.805Z,6.43
2023-07-24T20:06:33.244Z,5.97
2023-07-24T20:09:02.159Z,6.13
2023-07-24T20:11:32.101Z,5.57
2023-07-24T20:14:00.793Z,6.00
2023-07-24T20:16:29.380Z,5.70
2023-07-24T20:18:57.725Z,5.20
2023-07-24T20:21:26.182Z,5.88
2023-07-24T20:23:54.593Z,6.07
2023-07-24T20:26:23.015Z,5.43
2023-07-24T20:28:52.804Z,5.28
2023-07-24T20:31:21.053Z,5.03
2023-07-24T20:33:49.331Z,5.63
2023-07-24T20:36:17.725Z,6.30
2023-07-24T20:38:46.226Z,5.40
2023-07-24T20:41:14.528Z,5.60
2023-07-24T20:43:42.885Z,5.32
2023-07-24T20:46:17.159Z,5.95
2023-07-24T20:48:46.145Z,5.65
2023-07-24T20:51:19.141Z,6.07
2023-07-24T20:53:47.455Z,5.72
2023-07-24T20:56:15.887Z,5.70
2023-07-24T20:58:44.352Z,6.10
2023-07-24T21:01:12.846Z,6.07
2023-07-24T21:03:42.640Z,5.90
2023-07-24T21:06:10.929Z,5.60
2023-07-24T21:08:39.209Z,5.65
2023-07-24T21:11:07.672Z,5.50
2023-07-24T21:13:35.973Z,5.15
2023-07-24T21:16:04.311Z,5.22
2023-07-24T21:18:32.689Z,5.53
2023-07-24T21:21:02.557Z,5.45
2023-07-24T21:23:31.243Z,5.28
2023-07-24T21:26:00.132Z,5.82
2023-07-24T21:28:28.437Z,5.40
2023-07-24T21:30:56.817Z,5.00
2023-07-24T21:33:25.136Z,5.65
2023-07-24T21:36:04.958Z,6.30
2023-07-24T21:38:34.106Z,5.20
2023-07-24T21:41:02.609Z,5.43
2023-07-24T21:43:30.901Z,5.45
2023-07-24T21:45:59.244Z,6.03
2023-07-24T21:48:27.559Z,5.43
2023-07-24T21:50:55.954Z,5.72
2023-07-24T21:53:25.625Z,5.63
2023-07-24T21:55:53.994Z,5.90
2023-07-24T21:58:22.367Z,6.15
2023-07-24T22:00:50.738Z,5.68
2023-07-24T22:03:19.173Z,5.50
2023-07-24T22:05:47.473Z,5.88
2023-07-24T22:08:15.906Z,6.03
2023-07-24T22:10:45.598Z,5.63
2023-07-24T22:13:14.090Z,5.75
2023-07-24T22:15:42.457Z,5.85
2023-07-24T22:18:11.000Z,6.22
2023-07-24T22:20:41.729Z,6.45
2023-07-24T22:23:11.291Z,6.03
2023-07-24T22:25:40.742Z,5.65
2023-07-24T22:28:10.498Z,5.68
2023-07-24T22:30:38.771Z,5.88
2023-07-24T22:33:07.078Z,5.68
2023-07-24T22:35:35.425Z,6.50
2023-07-24T22:38:03.943Z,6.20
2023-07-24T22:40:32.853Z,5.90
2023-07-24T22:43:01.194Z,6.07
2023-07-24T22:45:31.697Z,5.95
2023-07-24T22:48:00.203Z,5.70
2023-07-24T22:50:28.592Z,6.30
2023-07-24T22:52:57.058Z,5.82
2023-07-24T22:55:25.416Z,6.22
2023-07-24T22:57:55.929Z,6.00
2023-07-24T23:00:26.029Z,6.22
2023-07-24T23:02:55.725Z,5.85
2023-07-24T23:05:24.156Z,6.25
2023-07-24T23:07:56.301Z,6.68
2023-07-24T23:10:24.800Z,5.70
2023-07-24T23:12:53.141Z,5.72
2023-07-24T23:15:21.418Z,5.72
2023-07-24T23:17:49.822Z,6.00
2023-07-24T23:20:19.708Z,6.55
2023-07-24T23:22:48.058Z,6.90
2023-07-24T23:25:16.355Z,6.03
2023-07-24T23:27:44.682Z,6.15
2023-07-24T23:30:13.271Z,5.70
2023-07-24T23:32:41.624Z,6.07
2023-07-24T23:35:10.476Z,6.05
2023-07-24T23:37:40.634Z,6.35
2023-07-24T23:40:10.058Z,5.53
2023-07-24T23:42:38.288Z,6.00
2023-07-24T23:45:07.483Z,6.18
2023-07-24T23:47:37.202Z,6.05
2023-07-24T23:50:06.100Z,6.47
2023-07-24T23:52:34.522Z,6.97
2023-07-24T23:55:04.434Z,7.18
2023-07-24T23:57:32.932Z,6.25
